TimeMDT,TemperatureF,Dew PointF,Humidity,Sea Level PressureIn,VisibilityMPH,Wind Direction,Wind SpeedMPH,Gust SpeedMPH,PrecipitationIn,Events,Conditions,WindDirDegrees,DateUTC
12:53 AM,63.0,32.0,31,29.61,10.0,Calm,Calm,-,N/A,,Clear,0,2013-06-24 06:53:00
1:53 AM,59.0,34.0,39,29.62,10.0,NNE,3.5,-,N/A,,Clear,20,2013-06-24 07:53:00
2:53 AM,57.9,32.0,37,29.63,10.0,SSE,9.2,-,N/A,,Clear,160,2013-06-24 08:53:00
3:53 AM,57.9,30.0,35,29.61,10.0,SSE,8.1,-,N/A,,Clear,160,2013-06-24 09:53:00
4:53 AM,50.0,33.1,52,29.62,10.0,Calm,Calm,-,N/A,,Clear,0,2013-06-24 10:53:00
5:53 AM,51.1,28.0,41,29.62,10.0,Calm,Calm,-,N/A,,Clear,0,2013-06-24 11:53:00
6:53 AM,55.0,36.0,49,29.62,10.0,Calm,Calm,-,N/A,,Clear,0,2013-06-24 12:53:00
7:53 AM,57.0,41.0,55,29.63,10.0,Calm,Calm,-,N/A,,Clear,0,2013-06-24 13:53:00
8:53 AM,64.9,36.0,34,29.63,10.0,West,4.6,-,N/A,,Clear,260,2013-06-24 14:53:00
9:53 AM,73.0,42.1,33,29.62,10.0,NE,4.6,-,N/A,,Clear,40,2013-06-24 15:53:00
10:53 AM,75.9,43.0,31,29.59,10.0,North,6.9,-,N/A,,Clear,10,2013-06-24 16:53:00
11:53 AM,81.0,39.9,23,29.57,10.0,NNE,6.9,-,N/A,,Clear,20,2013-06-24 17:53:00
12:53 PM,84.9,41.0,21,29.52,10.0,North,6.9,-,N/A,,Clear,360,2013-06-24 18:53:00
1:53 PM,90.0,37.9,16,29.48,10.0,West,8.1,-,N/A,,Clear,280,2013-06-24 19:53:00
2:53 PM,91.9,28.0,10,29.47,10.0,West,15.0,-,N/A,,Clear,270,2013-06-24 20:53:00
3:12 PM,93.2,28.4,10,29.61,10.0,WSW,20.7,29.9,N/A,,Clear,250,2013-06-24 21:12:00
3:53 PM,91.0,26.1,10,29.47,10.0,WSW,10.4,-,N/A,,Clear,250,2013-06-24 21:53:00
4:53 PM,93.0,28.0,10,29.47,10.0,West,12.7,20.7,N/A,,Clear,260,2013-06-24 22:53:00
5:53 PM,91.9,24.1,9,29.45,10.0,SSW,10.4,-,N/A,,Clear,210,2013-06-24 23:53:00
6:53 PM,88.0,28.0,12,29.45,10.0,SW,13.8,-,N/A,,Clear,220,2013-06-25 00:53:00
7:53 PM,86.0,27.0,12,29.45,10.0,SSW,10.4,-,N/A,,Clear,200,2013-06-25 01:53:00
8:53 PM,79.0,28.0,15,29.45,10.0,South,9.2,-,N/A,,Clear,180,2013-06-25 02:53:00
9:53 PM,78.1,36.0,22,29.47,10.0,ENE,4.6,-,N/A,,Clear,60,2013-06-25 03:53:00
10:53 PM,73.9,39.0,28,29.50,10.0,SW,6.9,-,N/A,,Clear,230,2013-06-25 04:53:00
11:53 PM,75.0,37.0,25,29.52,10.0,SSW,3.5,-,N/A,,Clear,210,2013-06-25 05:53:00